createdAt,value
2024-05-09T00:01:11.357Z,10.52
2024-05-09T00:03:43.739Z,10.46
2024-05-09T00:06:13.737Z,10.57
2024-05-09T00:08:46.437Z,10.51
2024-05-09T00:11:17.427Z,10.61
2024-05-09T00:13:47.247Z,10.48
2024-05-09T00:16:17.132Z,10.35
2024-05-09T00:18:47.073Z,10.29
2024-05-09T00:21:16.938Z,10.26
2024-05-09T00:23:49.324Z,10.16
2024-05-09T00:26:20.006Z,10.17
2024-05-09T00:28:49.807Z,10.08
2024-05-09T00:31:19.568Z,10.07
2024-05-09T00:33:49.550Z,10.08
2024-05-09T00:36:19.389Z,9.98
2024-05-09T00:38:51.736Z,9.97
2024-05-09T00:41:21.543Z,9.76
2024-05-09T00:43:51.529Z,9.61
2024-05-09T00:46:21.455Z,9.67
2024-05-09T00:48:51.856Z,9.58
2024-05-09T00:51:22.638Z,9.62
2024-05-09T00:53:55.435Z,9.50
2024-05-09T00:56:25.500Z,9.61
2024-05-09T00:58:58.780Z,9.49
2024-05-09T01:01:29.023Z,9.50
2024-05-09T01:03:59.401Z,9.43
2024-05-09T01:06:29.359Z,9.38
2024-05-09T01:09:01.734Z,9.35
2024-05-09T01:11:36.402Z,9.38
2024-05-09T01:14:06.262Z,9.28
2024-05-09T01:16:36.506Z,9.31
2024-05-09T01:19:13.906Z,9.43
2024-05-09T01:21:44.136Z,9.35
2024-05-09T01:24:16.446Z,9.27
2024-05-09T01:26:46.294Z,9.30
2024-05-09T01:29:16.141Z,9.36
2024-05-09T01:31:46.380Z,9.50
2024-05-09T01:34:16.124Z,9.45
2024-05-09T01:36:45.848Z,9.40
2024-05-09T01:39:18.194Z,9.53
2024-05-09T01:41:47.942Z,9.49
2024-05-09T01:44:17.891Z,9.45
2024-05-09T01:46:47.830Z,9.37
2024-05-09T01:49:17.712Z,9.37
2024-05-09T01:51:49.478Z,9.37
2024-05-09T01:54:21.800Z,9.29
2024-05-09T01:56:48.937Z,9.22
2024-05-09T01:59:18.704Z,9.21
2024-05-09T02:01:56.639Z,9.24
2024-05-09T02:04:27.676Z,9.07
2024-05-09T02:06:59.258Z,8.97
2024-05-09T02:09:31.612Z,8.93
2024-05-09T02:12:01.526Z,8.91
2024-05-09T02:14:31.550Z,8.84
2024-05-09T02:17:01.538Z,8.79
2024-05-09T02:19:31.425Z,8.80
2024-05-09T02:22:01.249Z,8.74
2024-05-09T02:24:33.524Z,8.72
2024-05-09T02:27:03.301Z,8.57
2024-05-09T02:29:33.224Z,8.57
2024-05-09T02:32:03.147Z,8.57
2024-05-09T02:34:32.980Z,8.55
2024-05-09T02:37:00.171Z,8.54
2024-05-09T02:39:30.116Z,8.46
2024-05-09T02:42:00.066Z,8.54
2024-05-09T02:44:30.029Z,8.41
2024-05-09T02:46:57.225Z,8.26
2024-05-09T02:49:27.115Z,8.42
2024-05-09T02:51:54.264Z,8.29
2024-05-09T02:54:23.974Z,8.14
2024-05-09T02:56:51.238Z,8.18
2024-05-09T02:59:23.825Z,8.15
2024-05-09T03:01:51.196Z,8.15
2024-05-09T03:04:21.526Z,8.17
2024-05-09T03:06:50.028Z,8.18
2024-05-09T03:09:20.508Z,8.18
2024-05-09T03:11:47.816Z,8.11
2024-05-09T03:14:19.093Z,8.14
2024-05-09T03:16:48.992Z,8.14
2024-05-09T03:19:18.959Z,8.18
2024-05-09T03:21:46.171Z,8.09
2024-05-09T03:24:15.909Z,8.20
2024-05-09T03:26:43.019Z,8.09
2024-05-09T03:29:12.820Z,7.90
2024-05-09T03:31:39.998Z,7.99
2024-05-09T03:34:12.721Z,7.93
2024-05-09T03:36:41.923Z,7.85
2024-05-09T03:39:12.459Z,7.79
2024-05-09T03:41:42.269Z,7.81
2024-05-09T03:44:09.540Z,7.86
2024-05-09T03:46:40.461Z,7.65
2024-05-09T03:49:10.299Z,7.76
2024-05-09T03:51:40.114Z,7.80
2024-05-09T03:54:07.296Z,7.79
2024-05-09T03:56:37.990Z,7.62
2024-05-09T03:59:05.233Z,7.69
2024-05-09T04:01:35.034Z,7.68
2024-05-09T04:04:02.274Z,7.85
2024-05-09T04:06:34.643Z,7.68
2024-05-09T04:09:01.823Z,7.75
2024-05-09T04:11:31.617Z,7.75
2024-05-09T04:13:58.904Z,7.80
2024-05-09T04:16:28.646Z,7.72
2024-05-09T04:18:55.900Z,7.98
2024-05-09T04:21:25.720Z,7.83
2024-05-09T04:23:56.824Z,7.80
2024-05-09T04:26:26.618Z,7.88
2024-05-09T04:28:53.831Z,7.87
2024-05-09T04:31:23.636Z,7.83
2024-05-09T04:33:50.968Z,7.85
2024-05-09T04:36:20.835Z,7.78
2024-05-09T04:38:48.031Z,7.92
2024-05-09T04:41:20.635Z,8.07
2024-05-09T04:43:50.835Z,8.05
2024-05-09T04:46:20.604Z,8.05
2024-05-09T04:48:48.916Z,8.18
2024-05-09T04:51:18.737Z,8.18
2024-05-09T04:53:45.944Z,8.15
2024-05-09T04:56:15.770Z,8.09
2024-05-09T04:58:45.597Z,8.33
2024-05-09T05:01:15.511Z,8.29
2024-05-09T05:03:42.903Z,8.34
2024-05-09T05:06:12.882Z,8.29
2024-05-09T05:08:40.156Z,8.52
2024-05-09T05:11:09.973Z,8.62
2024-05-09T05:13:40.142Z,8.65
2024-05-09T05:16:13.805Z,8.77
2024-05-09T05:18:41.479Z,8.68
2024-05-09T05:21:11.354Z,8.76
2024-05-09T05:23:40.680Z,8.89
2024-05-09T05:26:10.545Z,9.06
2024-05-09T05:28:37.679Z,8.97
2024-05-09T05:31:07.600Z,9.03
2024-05-09T05:33:37.392Z,9.17
2024-05-09T05:36:07.896Z,9.26
2024-05-09T05:38:35.005Z,9.24
2024-05-09T05:41:04.941Z,9.34
2024-05-09T05:43:32.136Z,9.45
2024-05-09T05:46:02.047Z,9.59
2024-05-09T05:48:31.912Z,9.57
2024-05-09T05:51:04.297Z,9.59
2024-05-09T05:53:34.647Z,9.58
2024-05-09T05:56:02.072Z,9.71
2024-05-09T05:58:31.824Z,9.76
2024-05-09T06:00:59.671Z,9.90
2024-05-09T06:03:29.562Z,9.98
2024-05-09T06:05:56.956Z,10.12
2024-05-09T06:08:30.450Z,10.08
2024-05-09T06:10:57.882Z,10.26
2024-05-09T06:13:27.692Z,10.37
2024-05-09T06:15:54.897Z,10.44
2024-05-09T06:18:24.880Z,10.56
2024-05-09T06:20:52.762Z,10.83
2024-05-09T06:23:22.852Z,10.98
2024-05-09T06:25:52.664Z,10.99
2024-05-09T06:28:22.490Z,10.81
2024-05-09T06:30:49.757Z,10.82
2024-05-09T06:33:19.711Z,10.91
2024-05-09T06:35:49.957Z,11.03
2024-05-09T06:38:19.768Z,11.17
2024-05-09T06:40:47.062Z,11.14
2024-05-09T06:43:20.153Z,11.20
2024-05-09T06:45:48.454Z,11.38
2024-05-09T06:48:22.105Z,11.48
2024-05-09T06:50:50.579Z,11.70
2024-05-09T06:53:26.349Z,11.55
2024-05-09T06:55:53.641Z,11.83
2024-05-09T06:58:26.019Z,11.90
2024-05-09T07:00:53.170Z,11.94
2024-05-09T07:03:23.137Z,11.85
2024-05-09T07:05:50.659Z,11.99
2024-05-09T07:08:20.612Z,12.10
2024-05-09T07:10:48.092Z,12.14
2024-05-09T07:13:18.148Z,12.21
2024-05-09T07:15:47.893Z,12.31
2024-05-09T07:18:20.209Z,12.51
2024-05-09T07:20:49.444Z,12.44
2024-05-09T07:23:20.349Z,12.48
2024-05-09T07:25:47.759Z,12.51
2024-05-09T07:28:19.414Z,12.71
2024-05-09T07:30:49.444Z,12.89
2024-05-09T07:33:20.215Z,12.99
2024-05-09T07:35:48.904Z,13.15
2024-05-09T07:38:18.802Z,12.92
2024-05-09T07:40:48.777Z,13.09
2024-05-09T07:43:16.410Z,13.20
2024-05-09T07:45:53.124Z,13.45
2024-05-09T07:53:39.928Z,13.56
2024-05-09T07:56:15.417Z,13.73
2024-05-09T07:58:43.815Z,13.79
2024-05-09T08:01:13.620Z,13.86
2024-05-09T08:03:46.396Z,13.77
2024-05-09T08:06:13.936Z,13.87
2024-05-09T08:08:43.681Z,13.91
2024-05-09T08:11:10.858Z,13.95
2024-05-09T08:13:40.789Z,14.14
2024-05-09T08:16:09.140Z,14.28
2024-05-09T08:18:39.176Z,14.20
2024-05-09T08:21:10.473Z,14.27
2024-05-09T08:23:40.176Z,14.22
2024-05-09T08:26:09.962Z,14.30
2024-05-09T08:28:37.084Z,14.66
2024-05-09T08:31:07.549Z,14.85
2024-05-09T08:33:35.240Z,14.79
2024-05-09T08:36:05.290Z,14.74
2024-05-09T08:38:34.956Z,14.78
2024-05-09T08:41:07.021Z,14.78
2024-05-09T08:43:34.649Z,14.82
2024-05-09T08:46:07.899Z,15.03
2024-05-09T08:48:38.046Z,15.34
2024-05-09T08:51:09.125Z,15.20
2024-05-09T08:53:38.935Z,15.17
2024-05-09T08:56:12.199Z,15.29
2024-05-09T08:58:40.755Z,15.17
2024-05-09T09:01:12.811Z,15.28
2024-05-09T09:03:41.400Z,15.44
2024-05-09T09:06:15.149Z,15.42
2024-05-09T09:08:46.055Z,15.55
2024-05-09T09:11:15.959Z,15.71
2024-05-09T09:13:43.102Z,15.82
2024-05-09T09:16:13.053Z,15.63
2024-05-09T09:18:44.343Z,15.72
2024-05-09T09:21:14.364Z,15.98
2024-05-09T09:23:41.490Z,16.09
2024-05-09T09:26:18.546Z,16.19
2024-05-09T09:28:45.811Z,16.19
2024-05-09T09:31:19.350Z,16.26
2024-05-09T09:33:46.937Z,16.27
2024-05-09T09:36:18.417Z,16.32
2024-05-09T09:38:47.082Z,16.47
2024-05-09T09:41:20.652Z,16.35
2024-05-09T09:43:48.422Z,15.99
2024-05-09T09:46:20.330Z,16.28
2024-05-09T09:48:48.637Z,16.53
2024-05-09T09:51:19.070Z,16.63
2024-05-09T09:53:47.434Z,16.83
2024-05-09T09:56:21.300Z,16.94
2024-05-09T09:58:48.958Z,16.80
2024-05-09T10:01:18.766Z,16.84
2024-05-09T10:03:46.194Z,16.81
2024-05-09T10:06:16.876Z,16.98
2024-05-09T10:08:46.828Z,17.25
2024-05-09T10:11:22.559Z,17.49
2024-05-09T10:13:51.367Z,17.87
2024-05-09T10:16:23.859Z,17.89
2024-05-09T10:18:51.340Z,17.66
2024-05-09T10:21:22.439Z,17.91
2024-05-09T10:24:00.202Z,18.12
2024-05-09T10:26:35.980Z,18.64
2024-05-09T10:29:12.130Z,18.40
2024-05-09T10:31:44.449Z,18.86
2024-05-09T10:34:17.744Z,17.87
2024-05-09T10:36:47.704Z,18.60
2024-05-09T10:39:15.842Z,18.16
2024-05-09T10:41:48.262Z,19.00
2024-05-09T10:44:16.432Z,19.00
2024-05-09T10:46:47.635Z,19.59
2024-05-09T10:49:15.256Z,19.66
2024-05-09T10:51:48.192Z,19.61
2024-05-09T10:54:16.272Z,19.82
2024-05-09T10:56:48.621Z,19.85
2024-05-09T10:59:15.751Z,19.65
2024-05-09T11:01:45.800Z,19.70
2024-05-09T11:04:13.841Z,21.05
2024-05-09T11:06:43.947Z,21.74
2024-05-09T11:09:11.646Z,20.57
2024-05-09T11:11:41.680Z,20.91
2024-05-09T11:14:15.070Z,23.24
2024-05-09T11:16:44.924Z,22.90
2024-05-09T11:19:13.742Z,24.16
2024-05-09T11:21:43.749Z,21.85
2024-05-09T11:24:12.837Z,22.98
2024-05-09T11:26:42.695Z,23.88
2024-05-09T11:29:10.009Z,25.63
2024-05-09T11:31:50.405Z,24.92
2024-05-09T11:34:17.644Z,24.93
2024-05-09T11:36:47.591Z,25.64
2024-05-09T11:39:15.053Z,22.88
2024-05-09T11:41:44.843Z,22.15
2024-05-09T11:44:13.124Z,22.91
2024-05-09T11:46:45.367Z,24.14
2024-05-09T11:49:15.340Z,24.89
2024-05-09T11:51:45.230Z,25.65
2024-05-09T11:54:12.418Z,23.15
2024-05-09T11:56:42.261Z,23.56
2024-05-09T11:59:09.389Z,25.18
2024-05-09T12:01:39.398Z,25.95
2024-05-09T12:04:07.005Z,25.45
2024-05-09T12:06:39.862Z,26.36
2024-05-09T12:09:07.145Z,23.09
2024-05-09T12:11:37.014Z,23.55
2024-05-09T12:14:06.974Z,24.98
2024-05-09T12:16:34.471Z,23.56
2024-05-09T12:19:04.524Z,24.30
2024-05-09T12:21:31.793Z,23.26
2024-05-09T12:24:04.227Z,23.22
2024-05-09T12:29:00.956Z,22.48
2024-05-09T12:31:28.145Z,23.42
2024-05-09T12:33:57.980Z,23.23
2024-05-09T12:36:25.283Z,22.35
2024-05-09T12:38:55.260Z,22.34
2024-05-09T12:41:25.345Z,22.52
2024-05-09T12:43:55.131Z,22.53
2024-05-09T12:46:23.460Z,23.00
2024-05-09T12:48:53.722Z,23.96
2024-05-09T12:51:21.247Z,22.99
2024-05-09T12:53:50.968Z,24.32
2024-05-09T12:56:18.147Z,26.10
2024-05-09T12:58:50.726Z,25.66
2024-05-09T13:01:17.939Z,27.62
2024-05-09T13:03:48.020Z,27.32
2024-05-09T13:06:15.403Z,27.53
2024-05-09T13:08:45.229Z,26.51
2024-05-09T13:11:13.029Z,26.63
2024-05-09T13:13:42.802Z,25.48
2024-05-09T13:16:12.677Z,25.16
2024-05-09T13:18:44.063Z,24.73
2024-05-09T13:21:12.150Z,24.46
2024-05-09T13:23:41.837Z,24.58
2024-05-09T13:26:09.061Z,22.99
2024-05-09T13:28:38.933Z,23.57
2024-05-09T13:31:06.210Z,22.47
2024-05-09T13:33:38.696Z,22.15
2024-05-09T13:36:07.147Z,22.54
2024-05-09T13:38:36.847Z,23.35
2024-05-09T13:41:04.224Z,22.64
2024-05-09T13:43:34.034Z,22.85
2024-05-09T13:46:01.293Z,23.55
2024-05-09T13:48:31.139Z,23.65
2024-05-09T13:51:01.013Z,22.72
2024-05-09T13:53:30.724Z,22.85
2024-05-09T13:55:57.957Z,23.23
2024-05-09T13:58:27.877Z,23.48
2024-05-09T14:00:55.186Z,23.35
2024-05-09T14:03:27.036Z,22.72
2024-05-09T14:05:54.447Z,22.80
2024-05-09T14:08:27.072Z,23.29
2024-05-09T14:10:54.466Z,23.17
2024-05-09T14:13:24.440Z,22.97
2024-05-09T14:15:51.873Z,23.15
2024-05-09T14:18:22.924Z,22.15
2024-05-09T14:20:50.128Z,22.40
2024-05-09T14:23:20.795Z,23.22
2024-05-09T14:25:53.013Z,23.54
2024-05-09T14:28:24.635Z,22.04
2024-05-09T14:30:51.820Z,21.87
2024-05-09T14:33:26.487Z,22.69
2024-05-09T14:35:53.635Z,22.96
2024-05-09T14:38:23.502Z,22.35
2024-05-09T14:40:53.591Z,21.94
2024-05-09T14:43:23.454Z,22.14
2024-05-09T14:45:50.895Z,23.02
2024-05-09T14:48:21.946Z,23.05
2024-05-09T14:50:49.073Z,23.31
2024-05-09T14:53:18.918Z,23.40
2024-05-09T14:55:46.376Z,22.99
2024-05-09T14:58:19.123Z,22.00
2024-05-09T15:00:50.210Z,23.24
2024-05-09T15:03:22.496Z,23.08
2024-05-09T15:05:50.783Z,23.46
2024-05-09T15:08:21.767Z,22.71
2024-05-09T15:10:50.088Z,21.47
2024-05-09T15:13:23.218Z,21.62
2024-05-09T15:15:50.469Z,21.57
2024-05-09T15:18:20.696Z,22.29
2024-05-09T15:20:48.333Z,22.95
2024-05-09T15:23:18.632Z,23.70
2024-05-09T15:25:45.868Z,22.16
2024-05-09T15:28:16.022Z,22.85
2024-05-09T15:30:46.983Z,22.99
2024-05-09T15:33:17.443Z,22.78
2024-05-09T15:35:46.251Z,22.99
2024-05-09T15:38:18.127Z,22.34
2024-05-09T15:40:46.123Z,22.18
2024-05-09T15:43:16.302Z,22.09
2024-05-09T15:45:46.283Z,22.66
2024-05-09T15:48:16.592Z,21.79
2024-05-09T15:50:44.333Z,21.61
2024-05-09T15:53:15.150Z,21.42
2024-05-09T15:55:42.615Z,21.88
2024-05-09T15:58:12.819Z,21.92
2024-05-09T16:00:46.313Z,22.23
2024-05-09T16:03:18.107Z,21.49
2024-05-09T16:05:50.019Z,21.95
2024-05-09T16:08:17.567Z,22.02
2024-05-09T16:10:49.140Z,22.03
2024-05-09T16:13:17.519Z,22.22
2024-05-09T16:15:48.501Z,22.68
2024-05-09T16:18:18.628Z,22.01
2024-05-09T16:20:50.114Z,22.41
2024-05-09T16:23:17.805Z,22.21
2024-05-09T16:25:48.484Z,21.87
2024-05-09T16:28:16.746Z,21.67
2024-05-09T16:30:46.638Z,22.02
2024-05-09T16:33:14.089Z,22.22
2024-05-09T16:35:46.581Z,22.01
2024-05-09T16:38:13.887Z,22.00
2024-05-09T16:40:43.785Z,21.38
2024-05-09T16:43:12.712Z,21.59
2024-05-09T16:45:44.755Z,20.91
2024-05-09T16:48:14.568Z,20.99
2024-05-09T16:50:49.934Z,21.03
2024-05-09T16:53:19.147Z,20.21
2024-05-09T16:55:48.997Z,19.99
2024-05-09T16:58:19.170Z,20.25
2024-05-09T17:00:50.217Z,20.58
2024-05-09T17:03:21.247Z,20.62
2024-05-09T17:05:51.418Z,20.56
2024-05-09T17:08:22.075Z,20.56
2024-05-09T17:10:49.959Z,20.27
2024-05-09T17:13:20.599Z,19.78
2024-05-09T17:15:51.188Z,19.75
2024-05-09T17:18:27.827Z,19.78
2024-05-09T17:21:00.272Z,19.81
2024-05-09T17:23:32.639Z,19.83
2024-05-09T17:26:05.073Z,19.75
2024-05-09T17:28:32.373Z,19.44
2024-05-09T17:31:04.747Z,19.61
2024-05-09T17:33:31.989Z,19.41
2024-05-09T17:36:04.518Z,19.15
2024-05-09T17:38:34.708Z,19.13
2024-05-09T17:41:04.504Z,19.39
2024-05-09T17:43:31.764Z,19.40
2024-05-09T17:46:01.645Z,18.96
2024-05-09T17:48:28.969Z,18.86
2024-05-09T17:50:58.781Z,18.91
2024-05-09T17:53:28.616Z,18.92
2024-05-09T17:56:00.267Z,19.04
2024-05-09T17:58:27.624Z,18.75
2024-05-09T18:00:57.556Z,18.90
2024-05-09T18:03:24.952Z,18.76
2024-05-09T18:05:54.955Z,18.64
2024-05-09T18:08:22.204Z,18.83
2024-05-09T18:10:55.567Z,18.79
2024-05-09T18:13:23.355Z,18.64
2024-05-09T18:15:53.689Z,18.77
2024-05-09T18:18:21.010Z,18.72
2024-05-09T18:20:50.925Z,18.53
2024-05-09T18:23:18.940Z,18.45
2024-05-09T18:25:49.353Z,18.36
2024-05-09T18:28:22.013Z,18.24
2024-05-09T18:30:52.168Z,18.35
2024-05-09T18:33:20.541Z,18.26
2024-05-09T18:35:50.556Z,18.06
2024-05-09T18:38:18.515Z,18.21
2024-05-09T18:40:49.634Z,18.26
2024-05-09T18:43:26.218Z,18.02
2024-05-09T18:46:01.196Z,18.03
2024-05-09T18:48:28.503Z,17.96
2024-05-09T18:50:58.632Z,17.97
2024-05-09T18:53:25.941Z,17.91
2024-05-09T18:55:55.831Z,17.74
2024-05-09T18:58:28.210Z,17.74
2024-05-09T19:00:57.126Z,17.74
2024-05-09T19:03:28.379Z,17.95
2024-05-09T19:05:55.765Z,17.73
2024-05-09T19:08:25.906Z,17.89
2024-05-09T19:10:53.424Z,17.78
2024-05-09T19:13:25.132Z,17.62
2024-05-09T19:15:55.070Z,17.71
2024-05-09T19:18:24.922Z,17.65
2024-05-09T19:20:52.254Z,17.53
2024-05-09T19:23:22.059Z,17.46
2024-05-09T19:25:49.244Z,17.70
2024-05-09T19:28:19.266Z,17.56
2024-05-09T19:30:46.680Z,17.71
2024-05-09T19:33:19.238Z,17.62
2024-05-09T19:35:46.406Z,17.42
2024-05-09T19:38:16.290Z,17.48
2024-05-09T19:40:43.500Z,17.61
2024-05-09T19:43:13.634Z,17.56
2024-05-09T19:45:40.846Z,17.52
2024-05-09T19:48:13.100Z,17.11
2024-05-09T19:50:44.657Z,16.93
2024-05-09T19:53:15.556Z,17.05
2024-05-09T19:55:43.135Z,16.84
2024-05-09T19:58:13.519Z,16.80
2024-05-09T20:00:42.954Z,16.93
2024-05-09T20:03:15.558Z,16.90
2024-05-09T20:05:47.059Z,16.63
2024-05-09T20:08:17.248Z,16.49
2024-05-09T20:10:44.704Z,16.48
2024-05-09T20:13:14.561Z,16.52
2024-05-09T20:15:41.782Z,16.36
2024-05-09T20:18:11.796Z,16.29
2024-05-09T20:20:42.488Z,16.18
2024-05-09T20:23:16.836Z,16.14
2024-05-09T20:25:44.033Z,16.09
2024-05-09T20:28:13.828Z,15.99
2024-05-09T20:30:41.274Z,16.02
2024-05-09T20:33:12.372Z,15.93
2024-05-09T20:35:39.682Z,15.83
2024-05-09T20:38:09.439Z,15.76
2024-05-09T20:40:40.011Z,15.74
2024-05-09T20:43:11.564Z,15.62
2024-05-09T20:45:40.053Z,15.60
2024-05-09T20:48:11.853Z,15.53
2024-05-09T20:50:41.742Z,15.44
2024-05-09T20:53:14.582Z,15.36
2024-05-09T20:55:47.156Z,15.32
2024-05-09T20:58:17.260Z,15.22
2024-05-09T21:00:45.934Z,15.21
2024-05-09T21:03:17.828Z,15.11
2024-05-09T21:05:46.064Z,15.04
2024-05-09T21:08:16.148Z,15.02
2024-05-09T21:10:46.227Z,14.96
2024-05-09T21:13:16.098Z,14.82
2024-05-09T21:15:43.330Z,14.78
2024-05-09T21:18:13.268Z,14.77
2024-05-09T21:20:40.523Z,14.71
2024-05-09T21:23:10.500Z,14.70
2024-05-09T21:25:37.621Z,14.65
2024-05-09T21:28:10.287Z,14.69
2024-05-09T21:30:41.775Z,14.58
2024-05-09T21:33:14.685Z,14.63
2024-05-09T21:35:43.453Z,14.62
2024-05-09T21:38:14.629Z,14.58
2024-05-09T21:40:42.784Z,14.56
2024-05-09T21:43:15.541Z,14.43
2024-05-09T21:45:43.120Z,14.33
2024-05-09T21:48:15.650Z,14.38
2024-05-09T21:50:43.180Z,14.33
2024-05-09T21:53:13.884Z,14.29
2024-05-09T21:55:41.470Z,14.19
2024-05-09T21:58:11.401Z,14.10
2024-05-09T22:00:43.510Z,14.12
2024-05-09T22:03:13.730Z,14.10
2024-05-09T22:05:43.624Z,14.04
2024-05-09T22:08:13.588Z,14.08
2024-05-09T22:10:41.048Z,14.09
2024-05-09T22:13:11.120Z,14.07
2024-05-09T22:15:41.226Z,14.09
2024-05-09T22:18:12.191Z,14.03
2024-05-09T22:20:44.866Z,13.91
2024-05-09T22:23:16.653Z,13.87
2024-05-09T22:25:44.021Z,13.79
2024-05-09T22:28:15.966Z,13.84
2024-05-09T22:30:47.460Z,13.89
2024-05-09T22:33:17.900Z,13.78
2024-05-09T22:35:45.454Z,13.87
2024-05-09T22:38:15.358Z,13.81
2024-05-09T22:40:47.913Z,13.78
2024-05-09T22:43:24.730Z,13.70
2024-05-09T22:45:55.715Z,13.67
2024-05-09T22:48:26.321Z,13.63
2024-05-09T22:50:53.984Z,13.64
2024-05-09T22:53:24.372Z,13.56
2024-05-09T22:55:51.669Z,13.67
2024-05-09T22:58:22.360Z,13.63
2024-05-09T23:00:50.055Z,13.61
2024-05-09T23:03:23.028Z,13.59
2024-05-09T23:05:50.419Z,13.53
2024-05-09T23:08:20.148Z,13.55
2024-05-09T23:10:47.310Z,13.53
2024-05-09T23:13:17.213Z,13.48
2024-05-09T23:15:44.399Z,13.47
2024-05-09T23:18:14.263Z,13.51
2024-05-09T23:20:44.061Z,13.49
2024-05-09T23:23:13.928Z,13.53
2024-05-09T23:25:41.885Z,13.44
2024-05-09T23:28:12.209Z,13.34
2024-05-09T23:30:41.026Z,13.21
2024-05-09T23:33:14.677Z,13.17
2024-05-09T23:35:44.942Z,13.12
2024-05-09T23:38:15.165Z,13.15
2024-05-09T23:40:43.235Z,13.16
2024-05-09T23:43:13.877Z,13.12
2024-05-09T23:45:41.942Z,13.04
2024-05-09T23:48:12.730Z,13.08
2024-05-09T23:50:40.813Z,13.07
2024-05-09T23:53:14.231Z,13.06
2024-05-09T23:55:41.467Z,13.09
2024-05-09T23:58:11.409Z,13.06
